sensor_id;sensor_type;location;lat;lon;timestamp;P1;durP1;ratioP1;P2;durP2;ratioP2
61785;SDS011;47692;53.714;11.372;2023-07-30T00:02:15;11.73;;;7.07;;
61785;SDS011;47692;53.714;11.372;2023-07-30T00:04:41;9.40;;;6.55;;
61785;SDS011;47692;53.714;11.372;2023-07-30T00:07:07;11.55;;;7.28;;
61785;SDS011;47692;53.714;11.372;2023-07-30T00:09:32;10.18;;;6.43;;
61785;SDS011;47692;53.714;11.372;2023-07-30T00:11:57;9.93;;;6.32;;
61785;SDS011;47692;53.714;11.372;2023-07-30T00:14:23;11.38;;;6.65;;
61785;SDS011;47692;53.714;11.372;2023-07-30T00:16:48;11.10;;;5.80;;
61785;SDS011;47692;53.714;11.372;2023-07-30T00:19:14;9.55;;;6.05;;
61785;SDS011;47692;53.714;11.372;2023-07-30T00:21:39;12.18;;;6.05;;
61785;SDS011;47692;53.714;11.372;2023-07-30T00:24:04;11.60;;;6.00;;
61785;SDS011;47692;53.714;11.372;2023-07-30T00:26:29;8.43;;;4.60;;
61785;SDS011;47692;53.714;11.372;2023-07-30T00:28:55;9.52;;;6.07;;
61785;SDS011;47692;53.714;11.372;2023-07-30T00:31:20;11.10;;;5.75;;
61785;SDS011;47692;53.714;11.372;2023-07-30T00:33:45;11.32;;;6.38;;
61785;SDS011;47692;53.714;11.372;2023-07-30T00:36:11;8.18;;;5.22;;
61785;SDS011;47692;53.714;11.372;2023-07-30T00:38:36;9.68;;;6.22;;
61785;SDS011;47692;53.714;11.372;2023-07-30T00:41:01;10.43;;;6.38;;
61785;SDS011;47692;53.714;11.372;2023-07-30T00:43:27;8.38;;;4.95;;
61785;SDS011;47692;53.714;11.372;2023-07-30T00:45:52;9.15;;;6.03;;
61785;SDS011;47692;53.714;11.372;2023-07-30T00:48:17;10.27;;;5.93;;
61785;SDS011;47692;53.714;11.372;2023-07-30T00:50:43;7.97;;;5.28;;
61785;SDS011;47692;53.714;11.372;2023-07-30T00:53:09;10.07;;;6.85;;
61785;SDS011;47692;53.714;11.372;2023-07-30T00:55:39;10.05;;;6.50;;
61785;SDS011;47692;53.714;11.372;2023-07-30T00:58:04;8.82;;;6.15;;
61785;SDS011;47692;53.714;11.372;2023-07-30T01:00:30;12.27;;;7.03;;
61785;SDS011;47692;53.714;11.372;2023-07-30T01:02:56;10.95;;;7.40;;
61785;SDS011;47692;53.714;11.372;2023-07-30T01:05:22;10.80;;;7.20;;
61785;SDS011;47692;53.714;11.372;2023-07-30T01:07:47;12.40;;;6.22;;
61785;SDS011;47692;53.714;11.372;2023-07-30T01:10:12;10.32;;;7.28;;
61785;SDS011;47692;53.714;11.372;2023-07-30T01:12:38;14.23;;;7.72;;
61785;SDS011;47692;53.714;11.372;2023-07-30T01:15:05;11.68;;;7.30;;
61785;SDS011;47692;53.714;11.372;2023-07-30T01:17:33;10.05;;;7.30;;
61785;SDS011;47692;53.714;11.372;2023-07-30T01:19:58;10.65;;;6.65;;
61785;SDS011;47692;53.714;11.372;2023-07-30T01:22:23;11.05;;;7.22;;
61785;SDS011;47692;53.714;11.372;2023-07-30T01:24:49;11.70;;;7.30;;
61785;SDS011;47692;53.714;11.372;2023-07-30T01:27:24;12.23;;;7.07;;
61785;SDS011;47692;53.714;11.372;2023-07-30T01:29:53;10.27;;;6.45;;
61785;SDS011;47692;53.714;11.372;2023-07-30T01:32:24;10.80;;;7.15;;
61785;SDS011;47692;53.714;11.372;2023-07-30T01:34:54;9.95;;;6.97;;
61785;SDS011;47692;53.714;11.372;2023-07-30T01:37:21;10.40;;;6.90;;
61785;SDS011;47692;53.714;11.372;2023-07-30T01:39:47;9.48;;;6.80;;
61785;SDS011;47692;53.714;11.372;2023-07-30T01:42:13;9.88;;;6.30;;
61785;SDS011;47692;53.714;11.372;2023-07-30T01:44:39;9.63;;;6.45;;
61785;SDS011;47692;53.714;11.372;2023-07-30T01:47:05;8.68;;;6.22;;
61785;SDS011;47692;53.714;11.372;2023-07-30T01:49:30;9.93;;;5.85;;
61785;SDS011;47692;53.714;11.372;2023-07-30T01:51:56;9.65;;;5.45;;
61785;SDS011;47692;53.714;11.372;2023-07-30T01:54:21;8.38;;;5.60;;
61785;SDS011;47692;53.714;11.372;2023-07-30T01:56:47;8.82;;;5.78;;
61785;SDS011;47692;53.714;11.372;2023-07-30T01:59:12;7.90;;;5.38;;
61785;SDS011;47692;53.714;11.372;2023-07-30T02:01:37;13.32;;;5.47;;
61785;SDS011;47692;53.714;11.372;2023-07-30T02:04:03;8.50;;;5.65;;
61785;SDS011;47692;53.714;11.372;2023-07-30T02:06:31;7.30;;;5.00;;
61785;SDS011;47692;53.714;11.372;2023-07-30T02:08:56;8.90;;;5.57;;
61785;SDS011;47692;53.714;11.372;2023-07-30T02:11:21;8.02;;;5.20;;
61785;SDS011;47692;53.714;11.372;2023-07-30T02:13:47;10.48;;;5.10;;
61785;SDS011;47692;53.714;11.372;2023-07-30T02:16:12;8.65;;;4.65;;
61785;SDS011;47692;53.714;11.372;2023-07-30T02:18:37;6.35;;;4.45;;
61785;SDS011;47692;53.714;11.372;2023-07-30T02:21:02;7.32;;;4.25;;
61785;SDS011;47692;53.714;11.372;2023-07-30T02:23:28;7.40;;;4.03;;
61785;SDS011;47692;53.714;11.372;2023-07-30T02:25:53;10.98;;;4.93;;
61785;SDS011;47692;53.714;11.372;2023-07-30T02:28:18;6.20;;;4.13;;
61785;SDS011;47692;53.714;11.372;2023-07-30T02:30:44;8.40;;;5.30;;
61785;SDS011;47692;53.714;11.372;2023-07-30T02:33:09;10.07;;;4.93;;
61785;SDS011;47692;53.714;11.372;2023-07-30T02:35:34;10.75;;;5.63;;
61785;SDS011;47692;53.714;11.372;2023-07-30T02:38:00;8.57;;;5.55;;
61785;SDS011;47692;53.714;11.372;2023-07-30T02:40:25;8.60;;;5.40;;
61785;SDS011;47692;53.714;11.372;2023-07-30T02:42:50;6.43;;;4.63;;
61785;SDS011;47692;53.714;11.372;2023-07-30T02:45:16;8.55;;;4.90;;
61785;SDS011;47692;53.714;11.372;2023-07-30T02:47:41;7.57;;;4.55;;
61785;SDS011;47692;53.714;11.372;2023-07-30T02:50:07;15.02;;;5.18;;
61785;SDS011;47692;53.714;11.372;2023-07-30T02:52:33;8.90;;;5.43;;
61785;SDS011;47692;53.714;11.372;2023-07-30T02:54:59;9.43;;;5.20;;
61785;SDS011;47692;53.714;11.372;2023-07-30T02:57:24;9.70;;;4.97;;
61785;SDS011;47692;53.714;11.372;2023-07-30T02:59:49;8.45;;;5.05;;
61785;SDS011;47692;53.714;11.372;2023-07-30T03:02:15;9.52;;;5.22;;
61785;SDS011;47692;53.714;11.372;2023-07-30T03:04:40;8.02;;;5.13;;
61785;SDS011;47692;53.714;11.372;2023-07-30T03:07:05;7.80;;;5.13;;
61785;SDS011;47692;53.714;11.372;2023-07-30T03:09:31;8.43;;;4.82;;
61785;SDS011;47692;53.714;11.372;2023-07-30T03:11:56;9.27;;;5.22;;
61785;SDS011;47692;53.714;11.372;2023-07-30T03:14:22;10.70;;;5.10;;
61785;SDS011;47692;53.714;11.372;2023-07-30T03:16:47;6.82;;;4.53;;
61785;SDS011;47692;53.714;11.372;2023-07-30T03:19:13;7.82;;;4.85;;
61785;SDS011;47692;53.714;11.372;2023-07-30T03:21:39;6.38;;;4.57;;
61785;SDS011;47692;53.714;11.372;2023-07-30T03:24:04;7.25;;;5.00;;
61785;SDS011;47692;53.714;11.372;2023-07-30T03:26:30;5.63;;;4.03;;
61785;SDS011;47692;53.714;11.372;2023-07-30T03:28:55;8.65;;;4.05;;
61785;SDS011;47692;53.714;11.372;2023-07-30T03:31:20;6.03;;;3.97;;
61785;SDS011;47692;53.714;11.372;2023-07-30T03:33:46;10.25;;;4.28;;
61785;SDS011;47692;53.714;11.372;2023-07-30T03:36:11;8.20;;;4.78;;
61785;SDS011;47692;53.714;11.372;2023-07-30T03:38:38;6.22;;;4.45;;
61785;SDS011;47692;53.714;11.372;2023-07-30T03:41:04;9.68;;;5.40;;
61785;SDS011;47692;53.714;11.372;2023-07-30T03:43:31;7.50;;;4.72;;
61785;SDS011;47692;53.714;11.372;2023-07-30T03:45:56;9.05;;;4.82;;
61785;SDS011;47692;53.714;11.372;2023-07-30T03:48:21;9.30;;;5.13;;
61785;SDS011;47692;53.714;11.372;2023-07-30T03:50:47;9.05;;;5.30;;
61785;SDS011;47692;53.714;11.372;2023-07-30T03:53:12;8.60;;;4.95;;
61785;SDS011;47692;53.714;11.372;2023-07-30T03:55:37;10.10;;;5.60;;
61785;SDS011;47692;53.714;11.372;2023-07-30T03:58:02;6.93;;;4.90;;
61785;SDS011;47692;53.714;11.372;2023-07-30T04:00:28;9.70;;;5.43;;
61785;SDS011;47692;53.714;11.372;2023-07-30T04:02:54;8.32;;;4.88;;
61785;SDS011;47692;53.714;11.372;2023-07-30T04:05:19;12.13;;;6.15;;
61785;SDS011;47692;53.714;11.372;2023-07-30T04:07:45;9.52;;;5.55;;
61785;SDS011;47692;53.714;11.372;2023-07-30T04:10:10;8.35;;;5.63;;
61785;SDS011;47692;53.714;11.372;2023-07-30T04:12:35;6.72;;;4.90;;
61785;SDS011;47692;53.714;11.372;2023-07-30T04:15:02;8.13;;;5.88;;
61785;SDS011;47692;53.714;11.372;2023-07-30T04:17:27;8.45;;;5.80;;
61785;SDS011;47692;53.714;11.372;2023-07-30T04:19:52;10.18;;;5.53;;
61785;SDS011;47692;53.714;11.372;2023-07-30T04:22:18;10.98;;;5.97;;
61785;SDS011;47692;53.714;11.372;2023-07-30T04:24:43;7.68;;;5.43;;
61785;SDS011;47692;53.714;11.372;2023-07-30T04:27:08;9.60;;;5.97;;
61785;SDS011;47692;53.714;11.372;2023-07-30T04:29:33;11.45;;;5.57;;
61785;SDS011;47692;53.714;11.372;2023-07-30T04:31:59;9.00;;;5.50;;
61785;SDS011;47692;53.714;11.372;2023-07-30T04:34:24;8.43;;;5.88;;
61785;SDS011;47692;53.714;11.372;2023-07-30T04:36:50;9.32;;;5.47;;
61785;SDS011;47692;53.714;11.372;2023-07-30T04:39:15;13.13;;;6.20;;
61785;SDS011;47692;53.714;11.372;2023-07-30T04:41:40;10.40;;;5.70;;
61785;SDS011;47692;53.714;11.372;2023-07-30T04:44:06;12.63;;;6.40;;
61785;SDS011;47692;53.714;11.372;2023-07-30T04:46:31;8.90;;;5.55;;
61785;SDS011;47692;53.714;11.372;2023-07-30T04:48:58;8.38;;;6.32;;
61785;SDS011;47692;53.714;11.372;2023-07-30T04:51:23;8.95;;;6.10;;
61785;SDS011;47692;53.714;11.372;2023-07-30T04:53:48;10.23;;;6.28;;
61785;SDS011;47692;53.714;11.372;2023-07-30T04:56:14;12.68;;;6.75;;
61785;SDS011;47692;53.714;11.372;2023-07-30T04:58:39;7.97;;;6.18;;
61785;SDS011;47692;53.714;11.372;2023-07-30T05:01:04;10.38;;;6.70;;
61785;SDS011;47692;53.714;11.372;2023-07-30T05:03:30;10.40;;;6.72;;
61785;SDS011;47692;53.714;11.372;2023-07-30T05:05:55;10.15;;;6.85;;
61785;SDS011;47692;53.714;11.372;2023-07-30T05:08:20;10.68;;;7.15;;
61785;SDS011;47692;53.714;11.372;2023-07-30T05:10:46;11.05;;;7.32;;
61785;SDS011;47692;53.714;11.372;2023-07-30T05:13:11;9.88;;;7.15;;
61785;SDS011;47692;53.714;11.372;2023-07-30T05:15:38;13.10;;;7.68;;
61785;SDS011;47692;53.714;11.372;2023-07-30T05:18:03;12.23;;;8.40;;
61785;SDS011;47692;53.714;11.372;2023-07-30T05:20:28;16.73;;;8.15;;
61785;SDS011;47692;53.714;11.372;2023-07-30T05:22:54;13.07;;;8.95;;
61785;SDS011;47692;53.714;11.372;2023-07-30T05:25:19;12.27;;;8.65;;
61785;SDS011;47692;53.714;11.372;2023-07-30T05:27:44;12.65;;;8.65;;
61785;SDS011;47692;53.714;11.372;2023-07-30T05:30:10;13.43;;;9.50;;
61785;SDS011;47692;53.714;11.372;2023-07-30T05:32:35;17.65;;;10.40;;
61785;SDS011;47692;53.714;11.372;2023-07-30T05:35:00;16.85;;;11.23;;
61785;SDS011;47692;53.714;11.372;2023-07-30T05:37:26;21.45;;;11.95;;
61785;SDS011;47692;53.714;11.372;2023-07-30T05:39:52;19.25;;;11.88;;
61785;SDS011;47692;53.714;11.372;2023-07-30T05:42:17;21.52;;;12.07;;
61785;SDS011;47692;53.714;11.372;2023-07-30T05:44:42;21.40;;;12.88;;
61785;SDS011;47692;53.714;11.372;2023-07-30T05:47:08;19.08;;;12.52;;
61785;SDS011;47692;53.714;11.372;2023-07-30T05:49:33;20.98;;;11.80;;
61785;SDS011;47692;53.714;11.372;2023-07-30T05:51:58;24.50;;;13.38;;
61785;SDS011;47692;53.714;11.372;2023-07-30T05:54:23;22.58;;;12.13;;
61785;SDS011;47692;53.714;11.372;2023-07-30T05:56:49;24.20;;;13.57;;
61785;SDS011;47692;53.714;11.372;2023-07-30T05:59:14;21.75;;;13.80;;
61785;SDS011;47692;53.714;11.372;2023-07-30T06:01:39;23.38;;;13.55;;
61785;SDS011;47692;53.714;11.372;2023-07-30T06:04:04;23.55;;;13.20;;
61785;SDS011;47692;53.714;11.372;2023-07-30T06:06:30;19.83;;;13.10;;
61785;SDS011;47692;53.714;11.372;2023-07-30T06:08:55;22.00;;;12.95;;
61785;SDS011;47692;53.714;11.372;2023-07-30T06:11:21;23.17;;;14.05;;
61785;SDS011;47692;53.714;11.372;2023-07-30T06:13:47;25.40;;;14.07;;
61785;SDS011;47692;53.714;11.372;2023-07-30T06:16:13;21.48;;;13.45;;
61785;SDS011;47692;53.714;11.372;2023-07-30T06:18:38;24.42;;;12.70;;
61785;SDS011;47692;53.714;11.372;2023-07-30T06:21:04;23.35;;;12.93;;
61785;SDS011;47692;53.714;11.372;2023-07-30T06:23:29;21.77;;;13.32;;
61785;SDS011;47692;53.714;11.372;2023-07-30T06:25:54;23.88;;;13.32;;
61785;SDS011;47692;53.714;11.372;2023-07-30T06:28:20;17.40;;;10.88;;
61785;SDS011;47692;53.714;11.372;2023-07-30T06:30:45;21.90;;;11.85;;
61785;SDS011;47692;53.714;11.372;2023-07-30T06:33:10;21.23;;;11.75;;
61785;SDS011;47692;53.714;11.372;2023-07-30T06:35:36;22.27;;;12.52;;
61785;SDS011;47692;53.714;11.372;2023-07-30T06:38:01;18.48;;;11.95;;
61785;SDS011;47692;53.714;11.372;2023-07-30T06:40:26;18.08;;;11.20;;
61785;SDS011;47692;53.714;11.372;2023-07-30T06:42:52;18.85;;;12.38;;
61785;SDS011;47692;53.714;11.372;2023-07-30T06:45:17;20.98;;;13.15;;
61785;SDS011;47692;53.714;11.372;2023-07-30T06:47:42;17.08;;;11.68;;
61785;SDS011;47692;53.714;11.372;2023-07-30T06:50:09;18.13;;;11.13;;
61785;SDS011;47692;53.714;11.372;2023-07-30T06:52:35;19.90;;;10.85;;
61785;SDS011;47692;53.714;11.372;2023-07-30T06:55:01;17.17;;;10.00;;
61785;SDS011;47692;53.714;11.372;2023-07-30T06:57:27;15.52;;;9.80;;
61785;SDS011;47692;53.714;11.372;2023-07-30T06:59:53;15.50;;;9.65;;
61785;SDS011;47692;53.714;11.372;2023-07-30T07:02:19;15.48;;;10.07;;
61785;SDS011;47692;53.714;11.372;2023-07-30T07:04:44;15.75;;;9.20;;
61785;SDS011;47692;53.714;11.372;2023-07-30T07:07:09;12.43;;;8.27;;
61785;SDS011;47692;53.714;11.372;2023-07-30T07:09:35;18.02;;;9.85;;
61785;SDS011;47692;53.714;11.372;2023-07-30T07:12:00;14.80;;;10.27;;
61785;SDS011;47692;53.714;11.372;2023-07-30T07:14:25;12.90;;;7.32;;
61785;SDS011;47692;53.714;11.372;2023-07-30T07:16:52;12.40;;;7.65;;
61785;SDS011;47692;53.714;11.372;2023-07-30T07:19:18;14.02;;;8.05;;
61785;SDS011;47692;53.714;11.372;2023-07-30T07:21:44;12.50;;;6.68;;
61785;SDS011;47692;53.714;11.372;2023-07-30T07:24:09;20.20;;;6.90;;
61785;SDS011;47692;53.714;11.372;2023-07-30T07:26:34;12.73;;;6.85;;
61785;SDS011;47692;53.714;11.372;2023-07-30T07:29:00;15.18;;;7.35;;
61785;SDS011;47692;53.714;11.372;2023-07-30T07:31:25;15.43;;;5.45;;
61785;SDS011;47692;53.714;11.372;2023-07-30T07:33:50;9.68;;;5.50;;
61785;SDS011;47692;53.714;11.372;2023-07-30T07:36:16;11.00;;;5.35;;
61785;SDS011;47692;53.714;11.372;2023-07-30T07:38:41;12.65;;;4.88;;
61785;SDS011;47692;53.714;11.372;2023-07-30T07:41:07;10.75;;;4.90;;
61785;SDS011;47692;53.714;11.372;2023-07-30T07:43:32;12.23;;;5.50;;
61785;SDS011;47692;53.714;11.372;2023-07-30T07:45:57;9.98;;;5.47;;
61785;SDS011;47692;53.714;11.372;2023-07-30T07:48:23;9.45;;;5.43;;
61785;SDS011;47692;53.714;11.372;2023-07-30T07:50:48;12.02;;;4.70;;
61785;SDS011;47692;53.714;11.372;2023-07-30T07:53:13;12.85;;;4.47;;
61785;SDS011;47692;53.714;11.372;2023-07-30T07:55:39;11.88;;;4.38;;
61785;SDS011;47692;53.714;11.372;2023-07-30T07:58:04;9.63;;;4.32;;
61785;SDS011;47692;53.714;11.372;2023-07-30T08:00:29;8.98;;;4.20;;
61785;SDS011;47692;53.714;11.372;2023-07-30T08:02:55;10.80;;;4.25;;
61785;SDS011;47692;53.714;11.372;2023-07-30T08:05:20;6.63;;;3.72;;
61785;SDS011;47692;53.714;11.372;2023-07-30T08:07:46;6.93;;;3.53;;
61785;SDS011;47692;53.714;11.372;2023-07-30T08:10:12;8.90;;;3.10;;
61785;SDS011;47692;53.714;11.372;2023-07-30T08:12:37;4.97;;;3.03;;
61785;SDS011;47692;53.714;11.372;2023-07-30T08:15:02;10.60;;;3.17;;
61785;SDS011;47692;53.714;11.372;2023-07-30T08:17:28;8.13;;;3.22;;
61785;SDS011;47692;53.714;11.372;2023-07-30T08:19:54;9.48;;;3.15;;
61785;SDS011;47692;53.714;11.372;2023-07-30T08:22:19;7.18;;;3.38;;
61785;SDS011;47692;53.714;11.372;2023-07-30T08:24:44;8.60;;;2.72;;
61785;SDS011;47692;53.714;11.372;2023-07-30T08:27:10;9.30;;;3.38;;
61785;SDS011;47692;53.714;11.372;2023-07-30T08:29:35;6.15;;;2.92;;
61785;SDS011;47692;53.714;11.372;2023-07-30T08:32:00;8.25;;;2.85;;
61785;SDS011;47692;53.714;11.372;2023-07-30T08:34:26;7.13;;;2.75;;
61785;SDS011;47692;53.714;11.372;2023-07-30T08:36:51;6.20;;;2.30;;
61785;SDS011;47692;53.714;11.372;2023-07-30T08:39:17;5.43;;;2.20;;
61785;SDS011;47692;53.714;11.372;2023-07-30T08:41:43;5.50;;;2.13;;
61785;SDS011;47692;53.714;11.372;2023-07-30T08:44:09;5.97;;;2.47;;
61785;SDS011;47692;53.714;11.372;2023-07-30T08:46:34;5.65;;;2.80;;
61785;SDS011;47692;53.714;11.372;2023-07-30T08:48:59;4.43;;;2.13;;
61785;SDS011;47692;53.714;11.372;2023-07-30T08:51:25;5.30;;;2.50;;
61785;SDS011;47692;53.714;11.372;2023-07-30T08:53:51;8.95;;;2.55;;
61785;SDS011;47692;53.714;11.372;2023-07-30T08:56:17;9.15;;;2.70;;
61785;SDS011;47692;53.714;11.372;2023-07-30T08:58:43;6.25;;;2.35;;
61785;SDS011;47692;53.714;11.372;2023-07-30T09:01:11;5.90;;;2.63;;
61785;SDS011;47692;53.714;11.372;2023-07-30T09:03:40;6.05;;;2.30;;
61785;SDS011;47692;53.714;11.372;2023-07-30T09:06:06;4.63;;;2.15;;
61785;SDS011;47692;53.714;11.372;2023-07-30T09:08:31;4.88;;;2.20;;
61785;SDS011;47692;53.714;11.372;2023-07-30T09:11:05;5.95;;;2.47;;
61785;SDS011;47692;53.714;11.372;2023-07-30T09:13:34;7.15;;;2.50;;
61785;SDS011;47692;53.714;11.372;2023-07-30T09:16:04;4.80;;;2.25;;
61785;SDS011;47692;53.714;11.372;2023-07-30T09:18:41;4.10;;;2.10;;
61785;SDS011;47692;53.714;11.372;2023-07-30T09:21:07;6.05;;;2.70;;
61785;SDS011;47692;53.714;11.372;2023-07-30T09:23:38;6.43;;;2.45;;
61785;SDS011;47692;53.714;11.372;2023-07-30T09:26:07;5.70;;;2.70;;
61785;SDS011;47692;53.714;11.372;2023-07-30T09:28:33;7.97;;;2.20;;
61785;SDS011;47692;53.714;11.372;2023-07-30T09:31:02;5.43;;;2.45;;
61785;SDS011;47692;53.714;11.372;2023-07-30T09:33:28;5.90;;;2.42;;
61785;SDS011;47692;53.714;11.372;2023-07-30T09:35:54;5.25;;;2.50;;
61785;SDS011;47692;53.714;11.372;2023-07-30T09:38:20;6.20;;;2.25;;
61785;SDS011;47692;53.714;11.372;2023-07-30T09:40:46;4.88;;;2.30;;
61785;SDS011;47692;53.714;11.372;2023-07-30T09:43:14;6.00;;;2.65;;
61785;SDS011;47692;53.714;11.372;2023-07-30T09:45:40;9.15;;;2.60;;
61785;SDS011;47692;53.714;11.372;2023-07-30T09:48:09;7.53;;;2.33;;
61785;SDS011;47692;53.714;11.372;2023-07-30T09:50:35;7.97;;;2.35;;
61785;SDS011;47692;53.714;11.372;2023-07-30T09:53:02;7.90;;;2.30;;
61785;SDS011;47692;53.714;11.372;2023-07-30T09:55:28;5.18;;;2.20;;
61785;SDS011;47692;53.714;11.372;2023-07-30T09:57:54;5.45;;;2.53;;
61785;SDS011;47692;53.714;11.372;2023-07-30T10:00:19;8.48;;;2.85;;
61785;SDS011;47692;53.714;11.372;2023-07-30T10:02:45;6.90;;;2.47;;
61785;SDS011;47692;53.714;11.372;2023-07-30T10:05:14;6.50;;;2.22;;
61785;SDS011;47692;53.714;11.372;2023-07-30T10:07:41;5.90;;;2.30;;
61785;SDS011;47692;53.714;11.372;2023-07-30T10:10:13;8.57;;;2.10;;
61785;SDS011;47692;53.714;11.372;2023-07-30T10:12:39;6.78;;;2.40;;
61785;SDS011;47692;53.714;11.372;2023-07-30T10:15:06;6.55;;;2.35;;
61785;SDS011;47692;53.714;11.372;2023-07-30T10:17:32;8.55;;;2.40;;
61785;SDS011;47692;53.714;11.372;2023-07-30T10:19:58;6.63;;;2.38;;
61785;SDS011;47692;53.714;11.372;2023-07-30T10:22:45;10.38;;;2.45;;
61785;SDS011;47692;53.714;11.372;2023-07-30T10:25:12;10.02;;;2.35;;
61785;SDS011;47692;53.714;11.372;2023-07-30T10:27:39;5.97;;;2.15;;
61785;SDS011;47692;53.714;11.372;2023-07-30T10:30:10;8.38;;;2.28;;
61785;SDS011;47692;53.714;11.372;2023-07-30T10:32:40;5.25;;;1.98;;
61785;SDS011;47692;53.714;11.372;2023-07-30T10:35:05;6.03;;;1.95;;
61785;SDS011;47692;53.714;11.372;2023-07-30T10:37:31;4.40;;;2.08;;
61785;SDS011;47692;53.714;11.372;2023-07-30T10:39:56;4.90;;;1.90;;
61785;SDS011;47692;53.714;11.372;2023-07-30T10:42:21;7.97;;;2.20;;
61785;SDS011;47692;53.714;11.372;2023-07-30T10:44:47;7.25;;;2.30;;
61785;SDS011;47692;53.714;11.372;2023-07-30T10:47:14;6.18;;;1.92;;
61785;SDS011;47692;53.714;11.372;2023-07-30T10:49:40;5.15;;;2.05;;
61785;SDS011;47692;53.714;11.372;2023-07-30T10:52:06;6.18;;;1.98;;
61785;SDS011;47692;53.714;11.372;2023-07-30T10:54:35;9.20;;;2.30;;
61785;SDS011;47692;53.714;11.372;2023-07-30T10:57:02;3.72;;;1.75;;
61785;SDS011;47692;53.714;11.372;2023-07-30T10:59:32;6.03;;;2.35;;
61785;SDS011;47692;53.714;11.372;2023-07-30T11:02:01;5.05;;;1.60;;
61785;SDS011;47692;53.714;11.372;2023-07-30T11:04:26;5.43;;;1.98;;
61785;SDS011;47692;53.714;11.372;2023-07-30T11:06:51;8.43;;;1.90;;
61785;SDS011;47692;53.714;11.372;2023-07-30T11:09:18;6.07;;;2.33;;
61785;SDS011;47692;53.714;11.372;2023-07-30T11:11:51;5.15;;;1.88;;
61785;SDS011;47692;53.714;11.372;2023-07-30T11:14:18;6.53;;;1.92;;
61785;SDS011;47692;53.714;11.372;2023-07-30T11:16:51;6.47;;;2.50;;
61785;SDS011;47692;53.714;11.372;2023-07-30T11:19:17;6.85;;;2.03;;
61785;SDS011;47692;53.714;11.372;2023-07-30T11:21:44;4.18;;;1.80;;
61785;SDS011;47692;53.714;11.372;2023-07-30T11:24:10;6.00;;;1.88;;
61785;SDS011;47692;53.714;11.372;2023-07-30T11:26:36;8.75;;;1.98;;
61785;SDS011;47692;53.714;11.372;2023-07-30T11:29:01;3.85;;;1.80;;
61785;SDS011;47692;53.714;11.372;2023-07-30T11:31:42;3.83;;;1.65;;
61785;SDS011;47692;53.714;11.372;2023-07-30T11:34:08;8.35;;;1.98;;
61785;SDS011;47692;53.714;11.372;2023-07-30T11:36:34;8.98;;;2.17;;
61785;SDS011;47692;53.714;11.372;2023-07-30T11:38:59;7.68;;;1.90;;
61785;SDS011;47692;53.714;11.372;2023-07-30T11:41:25;9.38;;;2.10;;
61785;SDS011;47692;53.714;11.372;2023-07-30T11:43:50;7.50;;;1.83;;
61785;SDS011;47692;53.714;11.372;2023-07-30T11:46:17;9.20;;;2.05;;
61785;SDS011;47692;53.714;11.372;2023-07-30T11:48:46;6.00;;;2.10;;
61785;SDS011;47692;53.714;11.372;2023-07-30T11:51:25;4.97;;;1.85;;
61785;SDS011;47692;53.714;11.372;2023-07-30T11:56:25;5.07;;;1.50;;
61785;SDS011;47692;53.714;11.372;2023-07-30T11:58:59;6.32;;;1.80;;
61785;SDS011;47692;53.714;11.372;2023-07-30T12:01:26;6.57;;;2.03;;
61785;SDS011;47692;53.714;11.372;2023-07-30T12:03:54;6.03;;;2.13;;
61785;SDS011;47692;53.714;11.372;2023-07-30T12:06:23;9.90;;;2.30;;
61785;SDS011;47692;53.714;11.372;2023-07-30T12:08:49;7.97;;;2.00;;
61785;SDS011;47692;53.714;11.372;2023-07-30T12:11:15;7.30;;;2.10;;
61785;SDS011;47692;53.714;11.372;2023-07-30T12:13:45;8.02;;;2.10;;
61785;SDS011;47692;53.714;11.372;2023-07-30T12:16:10;8.05;;;2.03;;
61785;SDS011;47692;53.714;11.372;2023-07-30T12:18:37;6.35;;;1.98;;
61785;SDS011;47692;53.714;11.372;2023-07-30T12:21:03;6.20;;;1.90;;
61785;SDS011;47692;53.714;11.372;2023-07-30T12:23:31;6.40;;;2.67;;
61785;SDS011;47692;53.714;11.372;2023-07-30T12:25:57;6.85;;;1.90;;
61785;SDS011;47692;53.714;11.372;2023-07-30T12:28:22;8.73;;;2.13;;
61785;SDS011;47692;53.714;11.372;2023-07-30T12:30:47;7.70;;;1.92;;
61785;SDS011;47692;53.714;11.372;2023-07-30T12:33:13;6.03;;;2.05;;
61785;SDS011;47692;53.714;11.372;2023-07-30T12:35:38;5.03;;;1.90;;
61785;SDS011;47692;53.714;11.372;2023-07-30T12:38:03;7.07;;;1.83;;
61785;SDS011;47692;53.714;11.372;2023-07-30T12:40:29;6.88;;;1.98;;
61785;SDS011;47692;53.714;11.372;2023-07-30T12:42:58;4.68;;;1.90;;
61785;SDS011;47692;53.714;11.372;2023-07-30T12:45:25;9.68;;;1.95;;
61785;SDS011;47692;53.714;11.372;2023-07-30T12:47:50;5.70;;;1.45;;
61785;SDS011;47692;53.714;11.372;2023-07-30T12:50:16;7.32;;;2.22;;
61785;SDS011;47692;53.714;11.372;2023-07-30T12:52:41;12.70;;;2.20;;
61785;SDS011;47692;53.714;11.372;2023-07-30T12:55:06;7.43;;;2.03;;
61785;SDS011;47692;53.714;11.372;2023-07-30T12:57:32;7.60;;;2.13;;
61785;SDS011;47692;53.714;11.372;2023-07-30T12:59:57;8.65;;;1.77;;
61785;SDS011;47692;53.714;11.372;2023-07-30T13:02:23;6.18;;;1.73;;
61785;SDS011;47692;53.714;11.372;2023-07-30T13:04:48;9.07;;;1.92;;
61785;SDS011;47692;53.714;11.372;2023-07-30T13:07:13;7.20;;;1.77;;
61785;SDS011;47692;53.714;11.372;2023-07-30T13:09:39;6.57;;;1.92;;
61785;SDS011;47692;53.714;11.372;2023-07-30T13:12:04;7.15;;;1.80;;
61785;SDS011;47692;53.714;11.372;2023-07-30T13:14:30;5.15;;;1.75;;
61785;SDS011;47692;53.714;11.372;2023-07-30T13:16:55;5.63;;;2.25;;
61785;SDS011;47692;53.714;11.372;2023-07-30T13:19:20;6.22;;;1.92;;
61785;SDS011;47692;53.714;11.372;2023-07-30T13:21:46;4.90;;;2.13;;
61785;SDS011;47692;53.714;11.372;2023-07-30T13:24:11;9.00;;;1.95;;
61785;SDS011;47692;53.714;11.372;2023-07-30T13:26:36;5.55;;;1.90;;
61785;SDS011;47692;53.714;11.372;2023-07-30T13:29:03;8.85;;;2.38;;
61785;SDS011;47692;53.714;11.372;2023-07-30T13:31:29;8.55;;;2.42;;
61785;SDS011;47692;53.714;11.372;2023-07-30T13:33:54;7.95;;;1.90;;
61785;SDS011;47692;53.714;11.372;2023-07-30T13:36:19;5.82;;;2.05;;
61785;SDS011;47692;53.714;11.372;2023-07-30T13:38:45;5.47;;;2.03;;
61785;SDS011;47692;53.714;11.372;2023-07-30T13:41:10;7.28;;;2.00;;
61785;SDS011;47692;53.714;11.372;2023-07-30T13:43:35;6.25;;;1.88;;
61785;SDS011;47692;53.714;11.372;2023-07-30T13:46:01;6.70;;;1.90;;
61785;SDS011;47692;53.714;11.372;2023-07-30T13:48:26;4.30;;;1.65;;
61785;SDS011;47692;53.714;11.372;2023-07-30T13:50:52;7.70;;;2.00;;
61785;SDS011;47692;53.714;11.372;2023-07-30T13:53:18;5.60;;;1.58;;
61785;SDS011;47692;53.714;11.372;2023-07-30T13:55:43;6.38;;;1.80;;
61785;SDS011;47692;53.714;11.372;2023-07-30T13:58:09;6.97;;;1.90;;
61785;SDS011;47692;53.714;11.372;2023-07-30T14:00:34;7.95;;;2.10;;
61785;SDS011;47692;53.714;11.372;2023-07-30T14:03:00;4.45;;;1.90;;
61785;SDS011;47692;53.714;11.372;2023-07-30T14:05:25;6.82;;;2.00;;
61785;SDS011;47692;53.714;11.372;2023-07-30T14:07:53;6.50;;;1.75;;
61785;SDS011;47692;53.714;11.372;2023-07-30T14:10:21;5.63;;;1.50;;
61785;SDS011;47692;53.714;11.372;2023-07-30T14:12:47;4.28;;;1.75;;
61785;SDS011;47692;53.714;11.372;2023-07-30T14:15:12;7.30;;;1.90;;
61785;SDS011;47692;53.714;11.372;2023-07-30T14:17:38;8.35;;;1.90;;
61785;SDS011;47692;53.714;11.372;2023-07-30T14:20:03;4.05;;;1.40;;
61785;SDS011;47692;53.714;11.372;2023-07-30T14:22:29;5.13;;;1.33;;
61785;SDS011;47692;53.714;11.372;2023-07-30T14:24:54;5.22;;;1.80;;